Time;durP1;ratioP1;P1;durP2;ratioP2;P2;SDS_P1;SDS_P2;PMS_P1;PMS_P2;Temp;Humidity;BMP_temperature;BMP_pressure;BME280_temperature;BME280_humidity;BME280_pressure;Samples;Min_cycle;Max_cycle;Signal;HPM_P1;HPM_P2
2021/04/24 00:00:16;;;;;;;14.35;6.88;;;;;;;10.08;64.44;102022.06;5052152;28;20037;-47
2021/04/24 00:02:43;;;;;;;15.57;6.88;;;;;;;10.09;64.34;102018.16;5050785;28;20088;-47
2021/04/24 00:05:17;;;;;;;19.25;8.20;;;;;;;10.07;64.61;102023.19;5052011;28;20079;-51
2021/04/24 00:07:44;;;;;;;17.15;6.80;;;;;;;9.99;64.61;102004.53;5051428;28;20049;-51
2021/04/24 00:10:11;;;;;;;15.00;6.28;;;;;;;9.96;64.74;102007.09;5051990;28;20135;-47
2021/04/24 00:12:37;;;;;;;10.38;5.97;;;;;;;9.92;64.83;102003.34;5051925;28;20425;-47
2021/04/24 00:15:10;;;;;;;13.77;6.88;;;;;;;9.88;65.24;102005.88;5052252;28;20572;-48
2021/04/24 00:17:36;;;;;;;;;;;;;;;9.86;64.91;102005.38;5052440;28;20557;-47
2021/04/24 00:20:05;;;;;;;16.23;5.43;;;;;;;9.90;64.55;102000.84;5051184;28;19928;-47
2021/04/24 00:22:32;;;;;;;17.15;6.65;;;;;;;9.92;64.76;102008.88;5057973;28;20048;-47
2021/04/24 00:24:58;;;;;;;13.88;5.78;;;;;;;9.93;64.90;102007.75;5051555;28;20060;-47
2021/04/24 00:27:25;;;;;;;18.25;6.00;;;;;;;9.95;64.97;102009.06;5051432;28;20057;-47
2021/04/24 00:29:52;;;;;;;16.25;7.00;;;;;;;9.93;65.07;102007.75;5051082;28;20461;-48
2021/04/24 00:32:18;;;;;;;13.73;6.32;;;;;;;9.92;65.22;102009.69;5051669;28;20090;-49
2021/04/24 00:34:44;;;;;;;11.88;5.72;;;;;;;9.94;65.20;102010.19;5067071;28;20055;-47
2021/04/24 00:37:12;;;;;;;17.70;6.45;;;;;;;9.92;65.22;101997.81;5051466;28;20080;-46
2021/04/24 00:39:38;;;;;;;17.50;6.15;;;;;;;9.87;65.38;102004.28;5065740;28;20126;-47
2021/04/24 00:42:05;;;;;;;46.17;9.15;;;;;;;9.88;65.32;102002.28;5051515;28;20094;-46
2021/04/24 00:44:32;;;;;;;15.45;5.30;;;;;;;9.86;65.18;102008.16;5054753;28;20081;-47
2021/04/24 00:46:58;;;;;;;20.27;6.80;;;;;;;9.85;65.44;102006.50;5051316;28;20041;-47
2021/04/24 00:49:25;;;;;;;18.17;6.20;;;;;;;9.84;65.12;102007.66;5050833;28;20036;-48
2021/04/24 00:51:52;;;;;;;15.30;5.90;;;;;;;9.85;65.51;102012.03;5063878;28;20060;-46
2021/04/24 00:54:18;;;;;;;13.15;6.35;;;;;;;9.84;65.46;102002.13;5051219;28;20095;-46
2021/04/24 00:56:45;;;;;;;14.82;6.40;;;;;;;9.84;65.49;102012.38;5052340;28;20102;-46
2021/04/24 00:59:11;;;;;;;16.10;5.75;;;;;;;9.84;65.30;102007.66;5050407;28;20544;-50
2021/04/24 01:01:38;;;;;;;13.98;6.07;;;;;;;9.80;65.49;102012.16;5069693;28;20459;-46
2021/04/24 01:04:05;;;;;;;14.98;5.57;;;;;;;9.72;65.53;102002.63;5057550;28;20060;-48
2021/04/24 01:06:31;;;;;;;15.50;5.97;;;;;;;9.76;65.48;102005.63;5051152;28;20485;-46
2021/04/24 01:08:58;;;;;;;15.93;5.95;;;;;;;9.71;65.31;102008.50;5051157;28;20141;-47
2021/04/24 01:11:24;;;;;;;18.17;7.20;;;;;;;9.61;65.53;102003.19;5061628;28;20076;-50
2021/04/24 01:13:51;;;;;;;13.90;5.75;;;;;;;9.55;65.77;102009.94;5070849;28;20076;-47
2021/04/24 01:16:20;;;;;;;17.20;7.38;;;;;;;9.53;65.99;102014.94;5061389;28;20498;-45
2021/04/24 01:18:46;;;;;;;20.83;6.95;;;;;;;9.50;65.91;102007.28;5050934;28;20102;-47
2021/04/24 01:21:16;;;;;;;19.98;8.10;;;;;;;9.48;66.07;102015.84;5050351;28;20057;-46
2021/04/24 01:23:43;;;;;;;16.50;6.70;;;;;;;9.49;65.69;102005.63;5069594;28;20128;-46
2021/04/24 01:26:10;;;;;;;13.73;6.30;;;;;;;9.48;66.06;102007.56;5050680;28;20049;-48
2021/04/24 01:28:36;;;;;;;15.55;6.20;;;;;;;9.48;66.06;102003.97;5051185;28;20045;-48
2021/04/24 01:31:02;;;;;;;18.35;7.07;;;;;;;9.45;66.30;102010.13;5051814;28;20488;-45
2021/04/24 01:33:29;;;;;;;17.90;7.38;;;;;;;9.42;66.51;102007.97;5066353;28;20052;-47
2021/04/24 01:35:55;;;;;;;10.98;6.53;;;;;;;9.42;66.72;102010.75;5070320;28;20040;-47
2021/04/24 01:38:21;;;;;;;16.98;6.72;;;;;;;9.42;66.96;102005.22;5059999;28;20120;-50
2021/04/24 01:40:48;;;;;;;14.88;6.20;;;;;;;9.42;66.91;102002.47;5053441;28;20045;-46
2021/04/24 01:43:14;;;;;;;16.48;6.00;;;;;;;9.43;66.96;102002.13;5054169;28;20427;-46
2021/04/24 01:45:40;;;;;;;16.60;6.75;;;;;;;9.42;66.92;102003.28;5055242;28;20049;-46
2021/04/24 01:48:08;;;;;;;18.15;6.53;;;;;;;9.49;67.10;102000.09;5060764;28;20044;-46
2021/04/24 01:50:38;;;;;;;11.68;6.50;;;;;;;9.49;66.84;102008.38;5057140;28;20056;-48
2021/04/24 01:53:07;;;;;;;13.18;5.45;;;;;;;9.44;67.02;102000.19;5063424;28;20041;-47
2021/04/24 01:55:35;;;;;;;13.02;5.45;;;;;;;9.46;66.92;101996.00;5054469;28;20549;-46
2021/04/24 01:58:06;;;;;;;18.83;6.13;;;;;;;9.48;67.08;101993.75;5053647;28;20033;-48
2021/04/24 02:00:37;;;;;;;15.18;6.75;;;;;;;9.45;66.91;101993.56;5051729;28;20103;-49
2021/04/24 02:03:07;;;;;;;12.70;5.78;;;;;;;9.47;67.14;101992.13;5053102;28;20514;-49
2021/04/24 02:05:34;;;;;;;14.27;5.65;;;;;;;9.54;66.70;101997.22;5054661;28;20048;-47
2021/04/24 02:08:06;;;;;;;12.05;5.90;;;;;;;9.61;66.67;101986.59;5054444;28;20052;-47
2021/04/24 02:10:33;;;;;;;15.80;6.13;;;;;;;9.66;66.47;101992.81;5052707;28;20083;-48
2021/04/24 02:13:02;;;;;;;15.38;5.47;;;;;;;9.65;66.43;101993.13;5065317;28;20080;-50
2021/04/24 02:15:29;;;;;;;14.40;5.57;;;;;;;9.60;66.68;101996.81;5071792;28;20033;-47
2021/04/24 02:17:56;;;;;;;15.30;6.20;;;;;;;9.55;66.78;101988.63;5074092;28;20094;-47
2021/04/24 02:20:22;;;;;;;14.13;7.45;;;;;;;9.49;66.86;101989.84;5065149;28;20048;-48
2021/04/24 02:22:49;;;;;;;13.63;5.97;;;;;;;9.44;67.26;101998.25;5064098;28;20045;-47
2021/04/24 02:25:18;;;;;;;13.20;6.10;;;;;;;9.40;67.56;101999.97;5059029;28;20037;-46
2021/04/24 02:27:44;;;;;;;10.73;5.50;;;;;;;9.40;67.30;102002.75;5057441;28;20049;-49
2021/04/24 02:30:14;;;;;;;13.07;5.07;;;;;;;9.37;67.60;102003.34;5053487;28;20170;-49
2021/04/24 02:32:41;;;;;;;12.48;6.10;;;;;;;9.40;67.51;102001.94;5053562;28;20132;-48
2021/04/24 02:35:10;;;;;;;16.27;7.25;;;;;;;9.40;67.49;101997.22;5053259;28;20099;-46
2021/04/24 02:37:37;;;;;;;15.00;5.43;;;;;;;9.40;67.61;102001.94;5060847;28;20079;-47
2021/04/24 02:40:13;;;;;;;13.65;5.43;;;;;;;9.37;68.11;102008.09;5058639;28;20103;-46
2021/04/24 02:42:40;;;;;;;22.75;5.43;;;;;;;9.35;67.65;102007.56;5053149;28;20072;-47
2021/04/24 02:45:09;;;;;;;17.75;5.68;;;;;;;9.29;68.01;102011.56;5052712;28;20502;-46
2021/04/24 02:47:36;;;;;;;14.23;4.30;;;;;;;9.23;68.19;102010.00;5053605;28;20127;-51
2021/04/24 02:50:06;;;;;;;15.55;5.80;;;;;;;9.15;68.70;102009.59;5053515;28;20040;-47
2021/04/24 02:52:33;;;;;;;12.48;5.30;;;;;;;9.14;68.72;102010.72;5076289;28;20036;-49
2021/04/24 02:55:00;;;;;;;13.10;5.43;;;;;;;9.11;68.73;102003.03;5055654;28;20083;-46
2021/04/24 02:57:27;;;;;;;15.57;6.60;;;;;;;9.14;68.78;102010.72;5062101;28;20059;-49
2021/04/24 02:59:53;;;;;;;11.20;5.82;;;;;;;9.12;68.85;102006.63;5060853;28;20099;-47
2021/04/24 03:02:19;;;;;;;14.55;5.32;;;;;;;9.12;68.96;101999.16;5062304;28;20072;-45
2021/04/24 03:04:46;;;;;;;18.25;7.22;;;;;;;9.16;68.89;102000.16;5060697;28;20437;-48
2021/04/24 03:07:12;;;;;;;20.45;6.10;;;;;;;9.18;68.92;102008.16;5052894;28;20099;-48
2021/04/24 03:09:38;;;;;;;14.55;5.75;;;;;;;9.14;69.11;101996.91;5053198;28;20037;-46
2021/04/24 03:12:06;;;;;;;21.83;6.80;;;;;;;9.10;69.51;101993.13;5053139;28;20044;-47
2021/04/24 03:14:32;;;;;;;19.25;7.47;;;;;;;9.04;69.89;101994.34;5053875;28;20041;-46
2021/04/24 03:16:59;;;;;;;19.40;6.60;;;;;;;9.00;69.94;101986.97;5052859;28;20053;-47
2021/04/24 03:19:25;;;;;;;19.85;6.20;;;;;;;8.99;69.90;101994.44;5053046;28;20123;-49
2021/04/24 03:21:52;;;;;;;17.98;7.47;;;;;;;8.99;70.00;101993.59;5057707;28;20127;-49
2021/04/24 03:24:18;;;;;;;15.07;6.95;;;;;;;9.00;70.14;101992.50;5073177;28;20079;-47
2021/04/24 03:26:44;;;;;;;24.95;10.10;;;;;;;9.02;70.22;101991.06;5069213;28;20053;-47
2021/04/24 03:29:11;;;;;;;17.88;8.52;;;;;;;9.05;70.22;101984.91;5056044;28;20064;-47
2021/04/24 03:31:37;;;;;;;17.83;8.02;;;;;;;9.08;70.29;101998.09;5066564;28;20066;-52
2021/04/24 03:34:03;;;;;;;20.85;8.68;;;;;;;9.10;70.26;101987.59;5069571;28;20821;-48
2021/04/24 03:36:30;;;;;;;14.65;7.78;;;;;;;9.08;70.33;101984.28;5054326;28;20055;-51
2021/04/24 03:38:57;;;;;;;15.95;8.23;;;;;;;9.10;69.97;101987.59;5069749;28;20041;-50
2021/04/24 03:41:23;;;;;;;14.00;7.97;;;;;;;9.12;70.17;101990.03;5051941;28;20745;-47
2021/04/24 03:43:49;;;;;;;22.23;8.63;;;;;;;9.12;70.07;101985.34;5052811;28;20570;-52
2021/04/24 03:46:17;;;;;;;17.38;6.45;;;;;;;9.07;70.17;101990.97;5053596;28;20102;-48
2021/04/24 03:48:43;;;;;;;17.27;8.05;;;;;;;9.02;70.70;101991.06;5052319;28;20094;-46
2021/04/24 03:51:09;;;;;;;14.15;7.07;;;;;;;8.99;70.58;101991.66;5062140;28;20071;-48
2021/04/24 03:53:36;;;;;;;13.68;7.03;;;;;;;8.97;71.08;101996.69;5061243;28;20513;-48
2021/04/24 03:56:02;;;;;;;15.13;6.25;;;;;;;8.97;70.70;101993.09;5052071;28;20441;-52
2021/04/24 03:58:28;;;;;;;14.15;5.63;;;;;;;8.96;70.83;101989.50;5052474;28;20110;-51
2021/04/24 04:00:56;;;;;;;14.48;5.93;;;;;;;8.95;70.75;101985.09;5064631;28;20567;-49
2021/04/24 04:03:23;;;;;;;17.70;6.55;;;;;;;8.96;70.58;101996.97;5069367;28;20044;-47
2021/04/24 04:05:49;;;;;;;15.15;5.78;;;;;;;8.96;70.56;102000.56;5052135;28;20075;-46
2021/04/24 04:08:15;;;;;;;13.68;6.22;;;;;;;8.96;70.53;102000.56;5051581;28;20041;-50
2021/04/24 04:10:44;;;;;;;14.70;6.57;;;;;;;8.98;70.75;102003.00;5051993;28;20494;-48
2021/04/24 04:13:12;;;;;;;15.98;6.60;;;;;;;8.97;70.62;102004.16;5052587;28;20052;-51
2021/04/24 04:15:39;;;;;;;21.13;8.85;;;;;;;8.97;70.47;102004.97;5052107;28;20072;-48
2021/04/24 04:18:08;;;;;;;14.18;6.90;;;;;;;8.95;70.63;102003.59;5052108;28;20041;-47
2021/04/24 04:20:38;;;;;;;13.05;5.90;;;;;;;8.97;70.69;102013.25;5055421;28;20134;-47
2021/04/24 04:23:04;;;;;;;9.80;5.13;;;;;;;8.97;70.48;102004.97;5084301;28;20051;-52
2021/04/24 04:25:30;;;;;;;8.73;5.22;;;;;;;8.94;70.97;102004.75;5058057;28;20040;-47
2021/04/24 04:27:57;;;;;;;14.63;6.00;;;;;;;8.91;71.01;102000.66;5070944;28;20585;-49
2021/04/24 04:30:24;;;;;;;16.33;6.18;;;;;;;8.86;70.93;102002.69;5056755;28;20053;-47
2021/04/24 04:32:51;;;;;;;17.95;5.97;;;;;;;8.80;71.62;102006.66;5052262;28;20454;-50
2021/04/24 04:35:19;;;;;;;12.90;7.43;;;;;;;8.77;71.86;102005.31;5051142;28;20568;-49
2021/04/24 04:37:46;;;;;;;20.13;7.57;;;;;;;8.75;72.00;102007.56;5055513;28;20055;-50
2021/04/24 04:40:13;;;;;;;14.63;6.03;;;;;;;8.74;71.96;102010.59;5071575;28;20045;-50
2021/04/24 04:42:40;;;;;;;17.20;6.10;;;;;;;8.72;71.93;102013.69;5055267;28;20056;-52
2021/04/24 04:45:08;;;;;;;14.60;6.60;;;;;;;8.74;72.32;102010.59;5068138;28;20093;-51
2021/04/24 04:47:35;;;;;;;14.45;6.47;;;;;;;8.73;72.08;102012.56;5064849;28;20083;-50
2021/04/24 04:50:06;;;;;;;18.52;5.95;;;;;;;8.70;72.36;102007.66;5070490;28;20477;-47
2021/04/24 04:52:32;;;;;;;13.10;5.68;;;;;;;8.69;72.31;102007.94;5065972;28;20076;-48
2021/04/24 04:54:58;;;;;;;14.73;6.97;;;;;;;8.69;72.31;102013.47;5051511;28;20502;-51
2021/04/24 04:57:25;;;;;;;14.07;5.68;;;;;;;8.70;72.23;102021.47;5060444;28;20049;-47
2021/04/24 04:59:51;;;;;;;17.92;7.20;;;;;;;8.70;72.09;102010.41;5051097;28;20103;-47
2021/04/24 05:02:17;;;;;;;12.80;6.43;;;;;;;8.68;72.31;102012.66;5066890;28;20080;-50
2021/04/24 05:04:45;;;;;;;12.63;6.55;;;;;;;8.67;72.23;102007.41;5052039;28;20047;-51
2021/04/24 05:07:12;;;;;;;11.85;5.65;;;;;;;8.64;72.35;102017.13;5068170;28;20559;-48
2021/04/24 05:09:39;;;;;;;12.63;6.68;;;;;;;8.63;72.46;102009.97;5056128;28;20080;-48
2021/04/24 05:12:06;;;;;;;15.30;6.45;;;;;;;8.62;72.64;102015.78;5051465;28;20087;-46
2021/04/24 05:14:32;;;;;;;11.82;6.40;;;;;;;8.59;72.39;102011.69;5051821;28;20068;-49
2021/04/24 05:16:58;;;;;;;17.88;7.97;;;;;;;8.57;72.63;102002.91;5075540;28;20135;-47
2021/04/24 05:19:25;;;;;;;15.20;6.90;;;;;;;8.60;72.40;102016.09;5067850;28;20091;-46
2021/04/24 05:21:52;;;;;;;18.98;7.72;;;;;;;8.58;72.48;102016.41;5063151;28;20044;-47
2021/04/24 05:24:18;;;;;;;14.02;6.00;;;;;;;8.58;72.60;102024.66;5059058;28;20048;-47
2021/04/24 05:26:44;;;;;;;17.25;9.32;;;;;;;8.58;72.49;102029.38;5054933;28;20833;-51
2021/04/24 05:29:11;;;;;;;13.77;6.45;;;;;;;8.58;72.73;102026.59;5055086;28;20041;-47
2021/04/24 05:31:37;;;;;;;15.27;6.45;;;;;;;8.56;72.66;102035.19;5070349;28;20044;-47
2021/04/24 05:34:04;;;;;;;16.02;7.72;;;;;;;8.57;72.82;102025.00;5074520;28;20045;-47
2021/04/24 05:36:31;;;;;;;14.43;6.68;;;;;;;8.57;73.10;102030.50;5056187;28;20049;-46
2021/04/24 05:38:57;;;;;;;16.15;7.57;;;;;;;8.58;72.90;102034.88;5054989;28;20088;-48
2021/04/24 05:41:24;;;;;;;12.38;6.50;;;;;;;8.57;73.02;102038.78;5054583;28;20073;-51
2021/04/24 05:43:52;;;;;;;13.68;7.15;;;;;;;8.58;73.04;102037.66;5054828;28;20167;-47
2021/04/24 05:46:20;;;;;;;17.05;6.53;;;;;;;8.59;72.93;102036.53;5060081;28;20045;-46
2021/04/24 05:48:48;;;;;;;14.63;6.72;;;;;;;8.60;72.96;102035.44;5074054;28;20036;-47
2021/04/24 05:51:16;;;;;;;11.65;6.95;;;;;;;8.60;73.20;102038.19;5078213;28;20067;-51
2021/04/24 05:53:44;;;;;;;14.32;7.13;;;;;;;8.62;72.76;102038.69;5054929;28;20490;-50
2021/04/24 05:56:11;;;;;;;12.80;6.57;;;;;;;8.63;73.21;102036.78;5062519;28;20033;-50
2021/04/24 05:58:37;;;;;;;16.42;7.13;;;;;;;8.64;73.24;102041.97;5071320;28;20075;-47
2021/04/24 06:01:04;;;;;;;13.77;7.07;;;;;;;8.70;73.04;102049.06;5061939;28;20110;-47
2021/04/24 06:03:30;;;;;;;13.32;6.13;;;;;;;8.77;72.89;102043.97;5054803;28;20045;-48
2021/04/24 06:05:57;;;;;;;16.58;6.35;;;;;;;8.83;72.76;102059.34;5067816;28;20048;-49
2021/04/24 06:08:23;;;;;;;8.77;4.38;;;;;;;8.90;72.66;102058.94;5065004;28;20094;-47
2021/04/24 06:10:50;;;;;;;10.80;4.72;;;;;;;8.97;72.62;102060.22;5069670;28;20052;-49
2021/04/24 06:13:17;;;;;;;11.90;6.28;;;;;;;9.02;72.53;102057.34;5069709;28;20033;-47
2021/04/24 06:15:43;;;;;;;7.90;4.10;;;;;;;9.07;72.38;102071.06;5053971;28;20048;-49
2021/04/24 06:18:09;;;;;;;9.10;4.72;;;;;;;9.11;72.51;102066.56;5054803;28;20072;-48
2021/04/24 06:20:36;;;;;;;10.75;4.38;;;;;;;9.15;72.53;102073.16;5060865;28;20124;-49
2021/04/24 06:23:03;;;;;;;10.20;4.43;;;;;;;9.19;72.48;102074.16;5078680;28;20393;-51
2021/04/24 06:25:29;;;;;;;12.75;5.43;;;;;;;9.25;72.34;102072.13;5054184;28;20045;-49
2021/04/24 06:27:56;;;;;;;10.65;4.50;;;;;;;9.28;72.42;102065.19;5053609;28;20099;-47
2021/04/24 06:30:23;;;;;;;11.75;4.57;;;;;;;9.34;72.23;102069.50;5052360;28;20053;-51
2021/04/24 06:32:51;;;;;;;12.20;6.00;;;;;;;9.37;72.17;102069.69;5054491;28;20076;-50
2021/04/24 06:35:19;;;;;;;8.20;5.25;;;;;;;9.41;72.18;102076.25;5065723;28;20039;-49
2021/04/24 06:37:46;;;;;;;12.80;5.40;;;;;;;9.43;72.08;102078.72;5060724;28;20045;-49
2021/04/24 06:40:14;;;;;;;15.80;5.05;;;;;;;9.49;72.28;102094.06;5053357;28;20033;-49
2021/04/24 06:42:41;;;;;;;12.95;5.88;;;;;;;9.52;72.33;102093.47;5053651;28;20045;-47
2021/04/24 06:45:09;;;;;;;15.60;5.20;;;;;;;9.56;72.11;102088.97;5054131;28;20095;-49
2021/04/24 06:47:35;;;;;;;16.13;5.70;;;;;;;9.62;72.06;102104.34;5073374;28;20049;-51
2021/04/24 06:50:05;;;;;;;16.02;5.50;;;;;;;9.65;72.04;102098.19;5063971;28;20063;-50
2021/04/24 06:52:31;;;;;;;9.65;4.95;;;;;;;9.72;72.00;102098.59;5055228;28;20048;-51
2021/04/24 06:55:00;;;;;;;11.23;5.13;;;;;;;9.80;71.96;102106.19;5054209;28;20049;-52
2021/04/24 06:57:26;;;;;;;8.57;4.88;;;;;;;9.87;71.88;102098.31;5053465;28;20049;-47
2021/04/24 06:59:53;;;;;;;11.88;4.97;;;;;;;9.97;72.11;102102.81;5057304;28;20040;-53
2021/04/24 07:02:19;;;;;;;11.90;4.70;;;;;;;10.02;71.82;102106.31;5054355;28;20131;-49
2021/04/24 07:04:46;;;;;;;11.10;5.13;;;;;;;10.08;71.66;102099.53;5053193;28;20425;-51
2021/04/24 07:07:12;;;;;;;8.73;4.22;;;;;;;10.13;71.54;102102.22;5058572;28;20110;-49
2021/04/24 07:09:40;;;;;;;6.80;3.50;;;;;;;10.17;71.28;102106.00;5064636;28;20434;-48
2021/04/24 07:12:07;;;;;;;10.82;4.95;;;;;;;10.23;70.91;102104.78;5067359;28;20119;-49
2021/04/24 07:14:33;;;;;;;9.55;4.13;;;;;;;10.26;70.75;102109.69;5066744;28;20046;-48
2021/04/24 07:17:00;;;;;;;10.85;3.97;;;;;;;10.31;70.74;102111.53;5057066;28;20124;-52
2021/04/24 07:19:27;;;;;;;5.75;3.40;;;;;;;10.33;70.30;102107.31;5066667;28;20048;-48
2021/04/24 07:21:53;;;;;;;8.13;3.85;;;;;;;10.40;70.22;102117.97;5061783;28;20089;-53
2021/04/24 07:24:20;;;;;;;7.40;3.60;;;;;;;10.46;69.89;102118.69;5057287;28;20073;-51
2021/04/24 07:26:46;;;;;;;8.95;3.63;;;;;;;10.50;69.57;102119.69;5052340;28;20107;-50
2021/04/24 07:29:16;;;;;;;13.18;4.60;;;;;;;10.55;69.31;102120.41;5052818;28;20045;-49
2021/04/24 07:31:43;;;;;;;9.55;3.83;;;;;;;10.56;68.72;102112.91;5052315;28;20048;-48
2021/04/24 07:34:11;;;;;;;9.32;3.67;;;;;;;10.61;68.35;102110.84;5059518;28;20029;-51
2021/04/24 07:36:38;;;;;;;8.30;3.45;;;;;;;10.66;67.85;102102.41;5071357;28;20044;-47
2021/04/24 07:39:05;;;;;;;7.35;3.33;;;;;;;10.75;67.52;102105.25;5066358;28;20090;-48
2021/04/24 07:41:32;;;;;;;11.00;2.90;;;;;;;10.82;67.23;102103.69;5060705;28;20551;-50
2021/04/24 07:43:58;;;;;;;10.82;3.50;;;;;;;10.90;66.47;102102.13;5052536;28;20482;-50
2021/04/24 07:46:25;;;;;;;10.27;4.55;;;;;;;11.02;66.55;102113.44;5052350;28;20044;-50
2021/04/24 07:48:51;;;;;;;6.28;3.60;;;;;;;11.12;66.02;102102.09;5052375;28;20048;-51
2021/04/24 07:51:17;;;;;;;7.30;4.00;;;;;;;11.19;65.91;102127.44;5079574;28;20075;-49
2021/04/24 07:53:44;;;;;;;15.02;2.78;;;;;;;11.24;64.89;102116.22;5092485;28;20044;-48
2021/04/24 07:56:11;;;;;;;7.68;3.03;;;;;;;11.34;64.66;102115.94;5092282;28;20591;-52
2021/04/24 07:58:37;;;;;;;6.65;2.80;;;;;;;11.43;63.91;102111.28;5092421;28;20493;-49
2021/04/24 08:01:04;;;;;;;5.93;3.58;;;;;;;11.56;63.91;102117.88;5060134;28;20118;-51
2021/04/24 08:03:30;;;;;;;11.93;4.03;;;;;;;11.68;63.51;102120.03;5053465;28;20045;-51
2021/04/24 08:05:56;;;;;;;7.72;3.35;;;;;;;11.82;63.39;102127.16;5059975;28;20053;-49
2021/04/24 08:08:22;;;;;;;6.00;3.20;;;;;;;11.96;63.01;102127.88;5070800;28;20079;-48
2021/04/24 08:10:49;;;;;;;6.35;2.70;;;;;;;12.11;62.59;102126.63;5060635;28;20474;-50
2021/04/24 08:13:15;;;;;;;5.85;3.05;;;;;;;12.21;62.03;102131.88;5048427;28;20060;-52
2021/04/24 08:15:42;;;;;;;6.85;3.00;;;;;;;12.24;60.64;102125.66;5069720;28;20055;-49
2021/04/24 08:18:08;;;;;;;6.53;2.47;;;;;;;12.33;60.33;102125.69;5061125;28;20052;-49
2021/04/24 08:20:35;;;;;;;19.95;13.25;;;;;;;12.44;60.06;102127.84;5049508;28;20090;-52
2021/04/24 08:23:01;;;;;;;8.75;3.72;;;;;;;12.54;59.71;102126.72;5052694;28;20134;-50
2021/04/24 08:25:28;;;;;;;91.53;61.13;;;;;;;12.65;59.44;102131.63;5050138;28;20087;-52
2021/04/24 08:27:54;;;;;;;17.50;6.80;;;;;;;12.76;58.72;102127.38;5058164;28;20079;-52
2021/04/24 08:30:21;;;;;;;13.25;4.65;;;;;;;12.92;58.07;102126.91;5053733;28;20102;-52
2021/04/24 08:32:48;;;;;;;8.98;3.35;;;;;;;13.06;57.30;102133.09;5069767;28;20048;-50
2021/04/24 08:35:15;;;;;;;6.60;3.10;;;;;;;13.47;56.74;102130.63;5061894;28;20045;-57
2021/04/24 08:37:43;;;;;;;4.57;2.80;;;;;;;14.04;56.13;102140.22;5056095;28;20044;-52
2021/04/24 08:40:11;;;;;;;9.18;3.03;;;;;;;14.53;54.76;102146.22;5059912;28;20137;-50
2021/04/24 08:42:39;;;;;;;9.07;4.20;;;;;;;15.06;53.83;102146.28;5054860;28;20081;-55
2021/04/24 08:45:14;;;;;;;8.77;3.42;;;;;;;15.68;52.88;102153.75;5059268;28;20121;-54
2021/04/24 08:47:46;;;;;;;6.93;4.00;;;;;;;16.21;51.17;102150.78;5068518;28;20557;-53
2021/04/24 08:50:23;;;;;;;7.53;2.63;;;;;;;16.36;50.33;102147.28;5055798;28;20457;-51
2021/04/24 08:52:57;;;;;;;6.43;3.30;;;;;;;16.34;49.86;102144.03;5056782;28;20045;-52
2021/04/24 08:55:27;;;;;;;6.57;3.35;;;;;;;16.34;47.32;102146.81;5052002;28;20045;-53
2021/04/24 08:57:53;;;;;;;13.93;4.00;;;;;;;16.30;48.21;102140.31;5059588;28;20044;-52
2021/04/24 09:00:27;;;;;;;9.18;2.85;;;;;;;16.57;46.65;102132.38;5060817;28;20083;-50
2021/04/24 09:02:54;;;;;;;15.93;6.38;;;;;;;16.83;46.66;102121.59;5060168;28;20049;-48
2021/04/24 09:05:23;;;;;;;9.88;3.13;;;;;;;16.66;45.98;102135.84;5055292;28;20076;-52
2021/04/24 09:08:02;;;;;;;6.97;2.85;;;;;;;16.54;42.98;102138.69;5061931;28;20696;-47
2021/04/24 09:10:33;;;;;;;5.00;3.20;;;;;;;16.70;44.86;102139.59;5049567;28;20048;-52
2021/04/24 09:13:00;;;;;;;7.07;2.80;;;;;;;17.28;45.32;102154.91;5050081;28;20064;-51
2021/04/24 09:15:26;;;;;;;8.68;2.60;;;;;;;17.68;44.13;102157.63;5053518;28;20107;-51
2021/04/24 09:17:53;;;;;;;5.05;3.25;;;;;;;17.92;43.28;102149.09;5059874;28;20040;-53
2021/04/24 09:20:24;;;;;;;5.78;3.35;;;;;;;18.16;42.71;102160.13;5053005;28;20136;-54
2021/04/24 09:23:07;;;;;;;9.18;2.90;;;;;;;18.29;40.92;102150.41;5062354;28;20079;-52
2021/04/24 09:25:38;;;;;;;4.20;2.47;;;;;;;18.38;41.61;102151.03;5058010;28;20052;-52
2021/04/24 09:28:07;;;;;;;9.65;3.13;;;;;;;18.72;41.04;102147.44;5062405;28;20447;-53
2021/04/24 09:30:36;;;;;;;7.28;3.10;;;;;;;18.88;40.84;102132.56;5058962;28;20051;-54
2021/04/24 09:33:06;;;;;;;6.95;2.95;;;;;;;19.06;40.21;102139.38;5063445;28;20037;-51
2021/04/24 09:35:41;;;;;;;4.90;2.40;;;;;;;18.91;39.17;102140.22;5064238;28;20032;-50
2021/04/24 09:38:09;;;;;;;6.10;2.20;;;;;;;18.74;39.31;102133.06;5064681;28;20048;-51
2021/04/24 09:40:37;;;;;;;6.05;2.50;;;;;;;18.72;39.38;102141.03;5060277;28;20548;-54
2021/04/24 09:43:06;;;;;;;6.70;2.95;;;;;;;18.66;38.83;102132.09;5049342;28;20037;-54
2021/04/24 09:45:34;;;;;;;5.88;3.70;;;;;;;18.71;38.54;102131.81;5051808;28;20048;-52
2021/04/24 09:48:01;;;;;;;6.20;2.50;;;;;;;18.62;38.45;102142.41;5058524;28;20059;-50
2021/04/24 09:50:31;;;;;;;8.10;2.65;;;;;;;18.56;38.50;102138.25;5061718;28;20052;-52
2021/04/24 09:53:23;;;;;;;8.77;2.92;;;;;;;18.35;37.33;102139.75;5079364;28;20064;-53
2021/04/24 09:55:53;;;;;;;7.13;2.85;;;;;;;18.22;38.18;102133.41;5057432;28;20498;-51
2021/04/24 09:58:33;;;;;;;5.57;2.55;;;;;;;18.50;37.37;102136.94;5062183;28;20395;-48
2021/04/24 10:01:26;;;;;;;10.02;4.10;;;;;;;18.67;37.65;102142.13;5056515;28;20102;-48
2021/04/24 10:03:53;;;;;;;3.90;2.30;;;;;;;18.92;38.21;102134.25;5053212;28;20392;-48
2021/04/24 10:06:21;;;;;;;5.93;2.53;;;;;;;19.13;37.74;102139.50;5058958;28;20029;-52
2021/04/24 10:08:48;;;;;;;5.80;2.85;;;;;;;19.03;37.41;102140.94;5056368;28;20130;-53
2021/04/24 10:11:33;;;;;;;9.20;2.85;;;;;;;19.07;36.18;102138.16;5051681;28;20037;-51
2021/04/24 10:14:00;;;;;;;6.07;2.90;;;;;;;19.20;37.54;102139.66;5071416;28;20502;-50
2021/04/24 10:16:43;;;;;;;8.02;3.30;;;;;;;19.47;36.40;102133.00;5055311;28;20048;-54
2021/04/24 10:19:16;;;;;;;6.93;3.38;;;;;;;19.28;36.66;102138.59;5056733;28;20485;-53
2021/04/24 10:21:43;;;;;;;7.38;3.00;;;;;;;19.23;36.73;102138.91;5066541;28;20101;-49
2021/04/24 10:24:12;;;;;;;5.50;2.90;;;;;;;19.31;36.62;102140.69;5053649;28;20053;-54
2021/04/24 10:26:40;;;;;;;8.55;3.10;;;;;;;19.36;36.28;102140.38;5064730;28;20103;-52
2021/04/24 10:29:11;;;;;;;9.75;3.53;;;;;;;19.27;36.17;102139.81;5069144;28;20044;-53
2021/04/24 10:31:38;;;;;;;7.50;3.35;;;;;;;19.06;36.48;102137.34;5072467;28;20082;-53
2021/04/24 10:34:07;;;;;;;4.90;3.00;;;;;;;19.13;36.56;102139.50;5054087;28;20045;-51
2021/04/24 10:36:36;;;;;;;12.55;4.10;;;;;;;19.10;36.48;102140.25;5061232;28;20052;-50
2021/04/24 10:39:26;;;;;;;6.53;3.38;;;;;;;18.98;35.76;102137.59;5062258;28;20502;-53
2021/04/24 10:42:14;;;;;;;8.60;3.53;;;;;;;18.97;36.54;102135.97;5052245;28;20148;-49
2021/04/24 10:44:54;;;;;;;12.07;4.35;;;;;;;18.68;35.67;102140.97;5052661;28;20049;-53
2021/04/24 10:47:41;;;;;;;10.02;4.82;;;;;;;18.39;36.00;102133.03;5068475;28;20123;-53
2021/04/24 10:50:14;;;;;;;11.40;6.15;;;;;;;18.11;36.73;102132.34;5056644;28;20041;-51
2021/04/24 10:52:42;;;;;;;12.32;5.85;;;;;;;17.86;37.03;102140.13;5055831;28;20438;-53
2021/04/24 10:55:12;;;;;;;15.32;6.53;;;;;;;17.84;36.98;102138.88;5061187;28;20068;-52
2021/04/24 10:57:41;;;;;;;15.55;5.60;;;;;;;17.74;36.96;102129.00;5056066;28;20109;-53
2021/04/24 11:00:08;;;;;;;13.48;5.40;;;;;;;17.56;36.96;102134.13;5068077;28;20068;-47
2021/04/24 11:02:45;;;;;;;10.55;6.15;;;;;;;17.60;37.31;102134.22;5063643;28;20115;-51
2021/04/24 11:05:19;;;;;;;14.68;6.10;;;;;;;17.61;37.49;102145.06;5055125;28;20384;-48
2021/04/24 11:07:46;;;;;;;11.38;6.25;;;;;;;17.57;37.74;102146.16;5052258;28;20053;-53
2021/04/24 11:10:12;;;;;;;16.10;7.40;;;;;;;17.52;38.08;102144.41;5056705;28;20114;-49
2021/04/24 11:12:49;;;;;;;15.25;7.22;;;;;;;17.46;38.00;102145.00;5059531;28;20098;-49
2021/04/24 11:15:18;;;;;;;15.02;7.93;;;;;;;17.37;38.65;102149.94;5055742;28;20041;-47
2021/04/24 11:17:45;;;;;;;13.68;7.50;;;;;;;17.26;38.96;102146.84;5070786;28;20461;-48
2021/04/24 11:20:12;;;;;;;20.02;8.25;;;;;;;17.13;39.32;102142.47;5065402;28;20060;-49
2021/04/24 11:22:42;;;;;;;14.45;7.68;;;;;;;17.00;39.85;102152.06;5073081;28;20094;-46
2021/04/24 11:25:17;;;;;;;18.27;8.30;;;;;;;16.87;39.32;102147.69;5055743;28;20060;-47
2021/04/24 11:28:03;;;;;;;15.80;6.90;;;;;;;16.78;39.40;102153.44;5050369;28;20056;-46